Time;durP1;ratioP1;P1;durP2;ratioP2;P2;SDS_P1;SDS_P2;PMS_P1;PMS_P2;Temp;Humidity;BMP_temperature;BMP_pressure;BME280_temperature;BME280_humidity;BME280_pressure;Samples;Min_cycle;Max_cycle;Signal;HPM_P1;HPM_P2
2022/10/18 00:00:00;;;;;;;4.37;2.90;;;14.60;99.90;;;;;;5112942;28;20444;-71
2022/10/18 00:02:27;;;;;;;11.00;2.63;;;14.60;99.90;;;;;;5114360;28;20778;-72
2022/10/18 00:04:54;;;;;;;2.80;2.30;;;14.50;99.90;;;;;;5114119;28;20483;-72
2022/10/18 00:07:21;;;;;;;4.07;2.70;;;;;;;;;;5114294;28;20455;-71
2022/10/18 00:09:48;;;;;;;5.93;2.77;;;14.50;99.90;;;;;;5113549;28;20451;-71
2022/10/18 00:12:16;;;;;;;2.43;2.23;;;14.30;99.90;;;;;;5113601;28;20439;-72
2022/10/18 00:14:42;;;;;;;2.43;2.20;;;14.20;99.90;;;;;;5114143;28;20444;-71
2022/10/18 00:17:10;;;;;;;3.47;2.37;;;14.10;99.90;;;;;;5113294;28;20462;-71
2022/10/18 00:19:37;;;;;;;3.47;2.00;;;14.10;99.90;;;;;;5112992;28;20444;-71
2022/10/18 00:22:04;;;;;;;6.17;1.83;;;14.10;99.90;;;;;;5113355;28;20443;-71
2022/10/18 00:24:30;;;;;;;4.43;2.50;;;14.10;99.90;;;;;;5113271;28;20471;-71
2022/10/18 00:26:57;;;;;;;3.47;2.37;;;14.10;99.90;;;;;;5113485;28;20452;-71
2022/10/18 00:29:25;;;;;;;4.53;2.43;;;14.10;99.90;;;;;;5112814;28;20448;-71
2022/10/18 00:31:52;;;;;;;4.93;3.20;;;14.00;99.90;;;;;;5106294;28;20456;-71
2022/10/18 00:34:19;;;;;;;2.97;2.50;;;14.00;99.90;;;;;;5112331;28;20454;-71
2022/10/18 00:36:46;;;;;;;4.20;2.43;;;14.10;99.90;;;;;;5113497;28;20452;-71
2022/10/18 00:39:16;;;;;;;3.87;2.17;;;14.00;99.90;;;;;;5112273;28;20459;-71
2022/10/18 00:41:43;;;;;;;3.50;2.30;;;14.10;99.90;;;;;;5113114;28;20462;-71
2022/10/18 00:44:43;;;;;;;2.90;2.37;;;14.10;99.90;;;;;;5110855;28;20492;-72
2022/10/18 00:47:15;;;;;;;4.37;2.47;;;14.30;99.90;;;;;;5112661;28;20459;-71
2022/10/18 00:49:46;;;;;;;5.70;2.73;;;14.40;99.90;;;;;;5112524;28;20462;-72
2022/10/18 00:52:17;;;;;;;5.90;2.97;;;14.40;99.90;;;;;;5112615;27;20494;-72
2022/10/18 00:54:46;;;;;;;3.30;2.70;;;14.40;99.90;;;;;;5112974;28;20807;-71
2022/10/18 00:57:14;;;;;;;3.17;2.87;;;14.40;99.90;;;;;;5112812;28;20456;-71
2022/10/18 00:59:42;;;;;;;2.93;2.50;;;14.40;99.90;;;;;;5112673;28;20444;-71
2022/10/18 01:02:09;;;;;;;4.57;3.00;;;14.50;99.90;;;;;;5112227;28;20439;-71
2022/10/18 01:04:37;;;;;;;9.00;2.27;;;14.50;99.90;;;;;;5112568;28;20479;-71
2022/10/18 01:07:13;;;;;;;2.67;2.00;;;14.50;99.90;;;;;;5100882;28;20458;-71
2022/10/18 01:09:45;;;;;;;4.90;2.13;;;14.60;99.90;;;;;;5111855;28;20459;-71
2022/10/18 01:12:21;;;;;;;4.37;3.20;;;14.60;99.90;;;;;;5112315;28;20942;-71
2022/10/18 01:14:57;;;;;;;4.17;2.47;;;14.50;99.90;;;;;;5112665;28;20440;-71
2022/10/18 01:17:31;;;;;;;2.50;2.10;;;14.70;99.90;;;;;;5112596;28;20455;-70
2022/10/18 01:20:45;;;;;;;5.80;3.23;;;14.70;99.90;;;;;;5106068;28;20447;-71
2022/10/18 01:23:17;;;;;;;3.53;2.63;;;14.60;99.90;;;;;;5099064;28;20440;-71
2022/10/18 01:25:54;;;;;;;7.57;2.40;;;14.60;99.90;;;;;;5112367;28;20464;-71
2022/10/18 01:28:35;;;;;;;5.00;2.37;;;14.60;99.90;;;;;;5112268;28;20443;-70
2022/10/18 01:31:05;;;;;;;2.90;2.50;;;14.60;99.90;;;;;;5111644;28;20447;-71
2022/10/18 01:33:37;;;;;;;4.73;2.67;;;14.60;99.90;;;;;;5112303;28;20517;-70
2022/10/18 01:36:08;;;;;;;3.40;2.20;;;14.70;99.90;;;;;;5111310;28;20450;-70
2022/10/18 01:38:37;;;;;;;3.10;1.80;;;14.70;99.90;;;;;;5111311;28;20451;-70
2022/10/18 01:41:06;;;;;;;3.40;2.23;;;14.70;99.90;;;;;;5111711;28;20451;-70
2022/10/18 01:43:35;;;;;;;3.30;1.97;;;14.70;99.90;;;;;;5112208;28;20460;-70
2022/10/18 01:46:04;;;;;;;2.50;2.30;;;14.80;99.90;;;;;;5111178;28;20465;-73
2022/10/18 01:48:32;;;;;;;2.90;2.23;;;14.80;99.90;;;;;;5110689;28;20478;-71
2022/10/18 01:50:59;;;;;;;4.53;1.97;;;14.90;99.90;;;;;;5110944;28;20440;-71
2022/10/18 01:53:29;;;;;;;4.17;2.53;;;14.90;99.90;;;;;;5112208;28;20534;-71
2022/10/18 01:56:12;;;;;;;4.43;2.17;;;15.00;99.90;;;;;;5111743;28;20450;-68
2022/10/18 01:58:48;;;;;;;4.20;1.70;;;14.90;99.90;;;;;;5111312;28;20988;-71
2022/10/18 02:01:25;;;;;;;2.27;1.80;;;14.90;99.90;;;;;;5110829;28;20645;-71
2022/10/18 02:03:58;;;;;;;5.57;2.20;;;14.90;99.90;;;;;;5111325;28;20937;-71
2022/10/18 02:06:31;;;;;;;2.93;2.27;;;14.90;99.90;;;;;;5112046;28;20446;-71
2022/10/18 02:09:04;;;;;;;2.50;1.80;;;14.90;99.90;;;;;;5110492;28;20458;-71
2022/10/18 02:11:32;;;;;;;6.10;2.40;;;14.90;99.90;;;;;;5109808;28;20490;-71
2022/10/18 02:14:04;;;;;;;3.23;1.80;;;14.90;99.90;;;;;;5110264;28;20440;-72
2022/10/18 02:16:38;;;;;;;3.70;2.23;;;15.10;99.90;;;;;;5111724;28;20474;-71
2022/10/18 02:19:10;;;;;;;2.53;1.63;;;15.00;99.90;;;;;;5110486;28;20436;-71
2022/10/18 02:21:40;;;;;;;2.77;2.17;;;15.00;99.90;;;;;;5111178;28;20452;-71
2022/10/18 02:24:08;;;;;;;3.63;2.20;;;15.00;99.90;;;;;;5110378;28;20452;-71
2022/10/18 02:26:35;;;;;;;3.00;2.13;;;15.00;99.90;;;;;;5110781;28;20463;-71
2022/10/18 02:29:02;;;;;;;3.13;2.03;;;15.10;99.90;;;;;;5110492;28;20440;-71
2022/10/18 02:31:35;;;;;;;2.23;1.70;;;15.10;99.90;;;;;;5111673;28;20440;-71
2022/10/18 02:34:07;;;;;;;3.80;2.23;;;15.10;99.90;;;;;;5109881;28;20922;-71
2022/10/18 02:36:40;;;;;;;3.97;2.60;;;15.10;99.90;;;;;;5111665;28;20448;-71
2022/10/18 02:39:13;;;;;;;3.10;2.03;;;15.20;99.90;;;;;;5110752;28;20439;-71
2022/10/18 02:41:41;;;;;;;1.70;1.50;;;15.10;99.90;;;;;;5111684;28;20501;-70
2022/10/18 02:44:08;;;;;;;3.67;2.20;;;15.10;99.90;;;;;;5096829;28;20454;-71
2022/10/18 02:46:36;;;;;;;3.07;2.20;;;15.10;99.90;;;;;;5110861;28;20513;-70
2022/10/18 02:49:03;;;;;;;3.83;2.27;;;15.20;99.90;;;;;;5109773;28;20472;-70
2022/10/18 02:51:30;;;;;;;3.67;1.90;;;15.20;99.90;;;;;;5111027;28;20950;-72
2022/10/18 02:53:57;;;;;;;2.53;1.77;;;15.10;99.90;;;;;;5110821;28;20538;-70
2022/10/18 02:56:24;;;;;;;8.73;2.50;;;15.10;99.90;;;;;;5111326;28;20458;-71
2022/10/18 02:58:50;;;;;;;3.00;2.40;;;15.10;99.90;;;;;;5111108;28;20790;-71
2022/10/18 03:01:17;;;;;;;2.97;2.30;;;15.10;99.90;;;;;;5110734;28;20454;-72
2022/10/18 03:03:45;;;;;;;2.73;1.83;;;15.20;99.90;;;;;;5111316;28;20448;-76
2022/10/18 03:06:12;;;;;;;3.83;2.53;;;15.20;99.90;;;;;;5109868;28;20479;-73
2022/10/18 03:08:39;;;;;;;3.20;2.00;;;15.20;99.90;;;;;;5111139;28;20448;-73
2022/10/18 03:11:06;;;;;;;2.30;2.07;;;15.20;99.90;;;;;;5110527;28;20444;-72
2022/10/18 03:13:33;;;;;;;4.10;2.00;;;15.20;99.90;;;;;;5107308;28;20452;-68
2022/10/18 03:16:00;;;;;;;2.40;2.20;;;15.20;99.90;;;;;;5107537;28;20980;-68
2022/10/18 03:18:27;;;;;;;3.50;2.43;;;15.20;99.90;;;;;;5110908;28;20448;-71
2022/10/18 03:20:55;;;;;;;2.67;2.00;;;15.10;99.90;;;;;;5110542;28;20456;-69
2022/10/18 03:23:22;;;;;;;2.50;1.70;;;15.10;99.90;;;;;;5111462;28;20447;-70
2022/10/18 03:25:49;;;;;;;3.40;1.93;;;15.10;99.90;;;;;;5110371;28;21020;-70
2022/10/18 03:28:16;;;;;;;7.63;3.00;;;15.10;99.90;;;;;;5110178;28;20488;-71
2022/10/18 03:30:43;;;;;;;5.23;2.20;;;15.10;99.90;;;;;;5109230;28;20507;-71
2022/10/18 03:33:09;;;;;;;2.67;2.03;;;15.10;99.90;;;;;;5110663;28;20779;-70
2022/10/18 03:35:36;;;;;;;2.07;1.83;;;15.20;99.90;;;;;;5110935;28;20470;-70
2022/10/18 03:38:04;;;;;;;1.90;1.63;;;15.20;99.90;;;;;;5110623;28;20452;-70
2022/10/18 03:40:31;;;;;;;9.43;2.23;;;15.20;99.90;;;;;;5110658;28;20450;-70
2022/10/18 03:42:58;;;;;;;2.93;2.00;;;15.10;99.90;;;;;;5110532;28;20444;-70
2022/10/18 03:45:25;;;;;;;3.47;2.10;;;15.00;99.90;;;;;;5113636;28;20483;-70
2022/10/18 03:47:52;;;;;;;2.03;1.83;;;15.00;99.90;;;;;;5114415;28;20486;-70
2022/10/18 03:50:20;;;;;;;3.07;2.20;;;15.00;99.90;;;;;;5113467;28;20920;-70
2022/10/18 03:52:47;;;;;;;1.63;1.53;;;15.00;99.90;;;;;;5114793;28;20452;-70
2022/10/18 03:55:15;;;;;;;3.50;2.53;;;15.00;99.90;;;;;;5114104;28;20447;-70
2022/10/18 03:57:42;;;;;;;2.30;1.63;;;14.90;99.90;;;;;;5114205;28;20477;-70
2022/10/18 04:00:10;;;;;;;4.00;2.30;;;14.90;99.90;;;;;;5113705;28;20994;-70
2022/10/18 04:02:36;;;;;;;3.53;2.37;;;15.00;99.90;;;;;;5114191;28;20514;-70
2022/10/18 04:05:03;;;;;;;2.63;2.13;;;14.90;99.90;;;;;;5113871;28;20830;-71
2022/10/18 04:07:30;;;;;;;2.60;1.90;;;14.90;99.90;;;;;;5114172;28;20451;-70
2022/10/18 04:09:57;;;;;;;5.70;2.37;;;14.90;99.90;;;;;;5113176;28;20444;-70
2022/10/18 04:12:25;;;;;;;3.07;1.70;;;14.80;99.90;;;;;;5114364;28;20490;-71
2022/10/18 04:14:52;;;;;;;3.00;2.00;;;14.80;99.90;;;;;;5114219;28;20448;-71
2022/10/18 04:17:19;;;;;;;6.80;2.47;;;14.80;99.90;;;;;;5113613;28;20464;-71
2022/10/18 04:19:45;;;;;;;4.30;2.00;;;14.70;99.90;;;;;;5113676;28;20455;-70
2022/10/18 04:22:12;;;;;;;2.13;1.80;;;14.70;99.90;;;;;;5113264;28;20456;-70
2022/10/18 04:24:39;;;;;;;4.00;2.23;;;14.80;99.90;;;;;;5113859;28;20452;-70
2022/10/18 04:27:07;;;;;;;3.90;2.33;;;14.70;99.90;;;;;;5113006;28;20465;-70
2022/10/18 04:29:35;;;;;;;4.47;2.20;;;14.60;99.90;;;;;;5113882;28;20443;-70
2022/10/18 04:32:02;;;;;;;2.90;1.80;;;14.50;99.90;;;;;;5113005;28;20448;-70
2022/10/18 04:34:29;;;;;;;2.47;2.20;;;14.60;99.90;;;;;;5113529;28;20452;-69
2022/10/18 04:36:56;;;;;;;5.07;2.20;;;14.60;99.90;;;;;;5113308;28;20794;-67
2022/10/18 04:39:22;;;;;;;4.77;2.43;;;14.50;99.90;;;;;;5113866;28;20448;-69
2022/10/18 04:41:49;;;;;;;2.80;2.50;;;14.50;99.90;;;;;;5113104;28;20462;-70
2022/10/18 04:44:16;;;;;;;3.80;2.27;;;14.50;99.90;;;;;;5112576;28;20464;-71
2022/10/18 04:46:44;;;;;;;2.90;2.23;;;14.50;99.90;;;;;;5113268;28;20499;-69
2022/10/18 04:49:11;;;;;;;2.53;2.30;;;14.50;99.90;;;;;;5112943;28;20984;-69
2022/10/18 04:51:38;;;;;;;3.00;2.10;;;14.40;99.90;;;;;;5112924;28;20444;-69
2022/10/18 04:54:04;;;;;;;3.90;2.57;;;14.40;99.90;;;;;;5112963;28;20451;-69
2022/10/18 04:56:32;;;;;;;7.53;2.23;;;14.30;99.90;;;;;;5112247;28;20452;-69
2022/10/18 04:58:58;;;;;;;3.93;2.60;;;14.40;99.90;;;;;;5113025;28;20447;-71
2022/10/18 05:01:25;;;;;;;2.67;2.00;;;14.40;99.90;;;;;;5113064;28;20458;-69
2022/10/18 05:03:54;;;;;;;2.60;2.10;;;14.50;99.90;;;;;;5113459;28;20444;-70
2022/10/18 05:06:21;;;;;;;2.17;1.97;;;14.60;99.90;;;;;;5113423;28;20482;-71
2022/10/18 05:08:48;;;;;;;3.50;2.30;;;14.80;99.90;;;;;;5113060;28;20447;-71
2022/10/18 05:11:15;;;;;;;2.27;2.07;;;15.00;99.90;;;;;;5112292;28;20671;-69
2022/10/18 05:13:42;;;;;;;8.30;2.53;;;15.10;99.90;;;;;;5113118;28;20452;-69
2022/10/18 05:16:09;;;;;;;1.50;1.40;;;15.20;99.90;;;;;;5112455;28;20460;-70
2022/10/18 05:18:36;;;;;;;2.50;1.93;;;15.20;99.90;;;;;;5113250;28;20443;-69
2022/10/18 05:21:04;;;;;;;3.50;2.57;;;15.20;99.90;;;;;;5111796;28;20454;-70
2022/10/18 05:23:31;;;;;;;2.90;2.03;;;15.20;99.90;;;;;;5112924;28;20448;-70
2022/10/18 05:26:01;;;;;;;3.10;2.50;;;15.20;99.90;;;;;;5112156;28;20978;-69
2022/10/18 05:28:28;;;;;;;4.37;3.07;;;15.20;99.90;;;;;;5113085;28;20474;-69
2022/10/18 05:30:55;;;;;;;2.60;2.00;;;15.20;99.90;;;;;;5112437;28;20935;-69
2022/10/18 05:33:22;;;;;;;3.10;2.47;;;15.20;99.90;;;;;;5113132;28;20455;-71
2022/10/18 05:35:49;;;;;;;3.80;2.40;;;15.20;99.90;;;;;;5112470;28;20467;-69
2022/10/18 05:38:17;;;;;;;3.00;2.10;;;15.00;99.90;;;;;;5112353;28;20452;-71
2022/10/18 05:40:44;;;;;;;3.67;2.07;;;15.00;99.90;;;;;;5112160;28;20444;-70
2022/10/18 05:43:11;;;;;;;3.43;2.20;;;14.80;99.90;;;;;;5112030;28;20463;-70
2022/10/18 05:45:37;;;;;;;6.20;2.20;;;14.80;99.90;;;;;;5112520;28;20506;-70
2022/10/18 05:48:06;;;;;;;4.60;2.27;;;14.70;99.90;;;;;;5111645;28;20478;-69
2022/10/18 05:50:33;;;;;;;4.00;2.90;;;14.60;99.90;;;;;;5112160;28;20448;-69
2022/10/18 05:53:00;;;;;;;2.60;2.30;;;14.70;99.90;;;;;;5111895;28;20448;-69
2022/10/18 05:55:28;;;;;;;2.90;2.10;;;14.70;99.90;;;;;;5112203;28;20459;-69
2022/10/18 05:57:55;;;;;;;2.60;2.00;;;14.60;99.90;;;;;;5113289;28;20456;-70
2022/10/18 06:00:22;;;;;;;5.23;2.60;;;14.60;99.90;;;;;;5098499;28;20516;-72
2022/10/18 06:02:49;;;;;;;3.20;2.20;;;14.60;99.90;;;;;;5112323;28;20522;-71
2022/10/18 06:05:16;;;;;;;3.70;2.13;;;14.60;99.90;;;;;;5111542;28;20860;-72
2022/10/18 06:07:42;;;;;;;4.27;2.77;;;14.60;99.90;;;;;;5111975;28;20454;-71
2022/10/18 06:10:10;;;;;;;9.07;2.50;;;14.70;99.90;;;;;;5111463;28;20451;-71
2022/10/18 06:12:38;;;;;;;2.80;2.20;;;14.60;99.90;;;;;;5112401;28;20450;-71
2022/10/18 06:15:06;;;;;;;3.87;2.73;;;14.70;99.90;;;;;;5111555;28;20440;-71
2022/10/18 06:17:33;;;;;;;2.60;2.40;;;14.80;99.90;;;;;;5112448;28;20463;-71
2022/10/18 06:19:59;;;;;;;6.90;2.80;;;14.90;99.90;;;;;;5111702;28;20450;-71
2022/10/18 06:22:26;;;;;;;3.20;2.13;;;14.90;99.90;;;;;;5112167;28;20444;-71
2022/10/18 06:24:53;;;;;;;3.80;2.70;;;15.00;99.90;;;;;;5112832;28;20482;-71
2022/10/18 06:27:20;;;;;;;3.97;2.00;;;15.10;99.90;;;;;;5112039;28;20483;-71
2022/10/18 06:29:48;;;;;;;4.27;2.63;;;15.10;99.90;;;;;;5113532;28;20451;-71
2022/10/18 06:32:15;;;;;;;3.07;2.40;;;15.30;99.90;;;;;;5113867;28;20547;-71
2022/10/18 06:34:42;;;;;;;3.13;2.57;;;15.40;99.90;;;;;;5114248;28;20475;-71
2022/10/18 06:37:08;;;;;;;6.73;2.57;;;15.50;99.90;;;;;;5114970;28;20456;-71
2022/10/18 06:39:35;;;;;;;4.10;2.37;;;15.60;99.90;;;;;;5115429;28;20451;-70
2022/10/18 06:42:02;;;;;;;3.57;2.97;;;15.70;99.90;;;;;;5116059;28;20459;-71
2022/10/18 06:44:30;;;;;;;8.10;2.63;;;16.00;99.90;;;;;;5116367;28;20937;-71
2022/10/18 06:46:58;;;;;;;3.00;2.30;;;16.10;99.90;;;;;;5115898;28;20997;-71
2022/10/18 06:49:25;;;;;;;3.93;2.17;;;16.20;99.90;;;;;;5116992;28;20491;-72
2022/10/18 06:51:54;;;;;;;2.77;2.40;;;16.70;99.90;;;;;;5117303;28;20461;-71
2022/10/18 06:54:21;;;;;;;4.00;2.97;;;17.00;29.00;;;;;;5117587;28;20440;-70
2022/10/18 06:56:48;;;;;;;2.97;2.13;;;17.20;1.00;;;;;;5116686;28;20462;-71
2022/10/18 06:59:15;;;;;;;2.10;1.90;;;17.40;1.00;;;;;;5117068;28;20534;-71
2022/10/18 07:01:42;;;;;;;2.50;2.00;;;17.50;1.00;;;;;;5117793;28;20447;-71
2022/10/18 07:04:10;;;;;;;3.17;1.77;;;17.60;1.00;;;;;;5118382;28;20444;-69
2022/10/18 07:06:37;;;;;;;3.30;1.90;;;17.60;99.90;;;;;;5119502;28;20509;-69
2022/10/18 07:09:04;;;;;;;3.20;2.00;;;17.70;99.90;;;;;;5119170;28;20444;-71
2022/10/18 07:11:31;;;;;;;2.63;2.00;;;17.80;99.90;;;;;;5118928;28;20440;-70
2022/10/18 07:14:01;;;;;;;3.27;2.07;;;17.80;71.20;;;;;;5118894;28;20443;-70
2022/10/18 07:16:29;;;;;;;3.17;1.90;;;17.90;1.00;;;;;;5119308;28;20513;-71
2022/10/18 07:18:56;;;;;;;3.70;1.93;;;17.90;1.00;;;;;;5120071;28;20440;-67
2022/10/18 07:21:26;;;;;;;2.80;1.63;;;17.80;30.30;;;;;;5122733;28;20447;-71
2022/10/18 07:23:53;;;;;;;3.27;2.40;;;17.80;99.90;;;;;;5122481;28;20443;-70
2022/10/18 07:26:22;;;;;;;3.30;2.10;;;17.80;63.50;;;;;;5120688;28;20482;-71
2022/10/18 07:28:53;;;;;;;3.00;2.30;;;17.80;99.90;;;;;;5122041;28;20440;-70
2022/10/18 07:31:20;;;;;;;2.33;1.37;;;18.00;1.00;;;;;;5120675;28;20465;-70
2022/10/18 07:33:47;;;;;;;3.17;2.07;;;18.20;1.00;;;;;;5121695;28;20447;-70
2022/10/18 07:36:14;;;;;;;2.90;1.87;;;18.30;99.90;;;;;;5121631;28;20460;-70
2022/10/18 07:38:43;;;;;;;1.93;1.67;;;18.30;99.90;;;;;;5122224;28;20444;-70
2022/10/18 07:41:12;;;;;;;3.30;1.70;;;18.30;99.90;;;;;;5122046;28;20486;-70
2022/10/18 07:43:42;;;;;;;2.50;2.03;;;18.40;99.90;;;;;;5122097;28;20443;-71
2022/10/18 07:46:09;;;;;;;4.63;1.90;;;18.60;99.90;;;;;;5122944;28;20495;-70
2022/10/18 07:48:36;;;;;;;1.87;1.57;;;18.60;1.00;;;;;;5122725;28;20472;-72
2022/10/18 07:51:03;;;;;;;3.30;2.63;;;18.70;1.00;;;;;;5121589;28;20945;-71
2022/10/18 07:53:30;;;;;;;2.47;1.80;;;18.90;1.00;;;;;;5121802;28;20432;-70
2022/10/18 07:55:59;;;;;;;3.80;2.00;;;18.80;99.90;;;;;;5121518;28;20448;-69
2022/10/18 07:58:26;;;;;;;2.20;1.73;;;19.00;1.00;;;;;;5122294;28;20448;-68
2022/10/18 08:00:54;;;;;;;6.13;2.37;;;19.00;1.00;;;;;;5122374;28;20945;-70
2022/10/18 08:03:21;;;;;;;3.03;1.87;;;19.00;1.00;;;;;;5122663;28;20447;-71
2022/10/18 08:05:52;;;;;;;5.83;1.83;;;19.00;20.50;;;;;;5121812;28;20444;-71
2022/10/18 08:08:20;;;;;;;2.53;2.10;;;18.90;39.10;;;;;;5121889;28;20435;-71
2022/10/18 08:10:47;;;;;;;6.63;4.30;;;19.10;1.00;;;;;;5123134;28;20448;-71
2022/10/18 08:13:15;;;;;;;2.80;2.03;;;19.00;1.00;;;;;;5121352;28;20436;-72
2022/10/18 08:15:42;;;;;;;3.50;1.70;;;19.00;1.00;;;;;;5122603;28;20439;-71
2022/10/18 08:18:09;;;;;;;3.27;1.97;;;19.10;1.00;;;;;;5121642;28;20447;-71
2022/10/18 08:20:36;;;;;;;3.70;2.07;;;19.00;99.90;;;;;;5122861;28;20440;-70
2022/10/18 08:23:03;;;;;;;5.47;1.90;;;19.00;85.00;;;;;;5119502;28;20439;-71
2022/10/18 08:25:31;;;;;;;2.57;2.07;;;19.20;1.00;;;;;;5121895;28;20444;-72
2022/10/18 08:28:00;;;;;;;2.47;2.27;;;19.10;1.00;;;;;;5106641;28;20476;-70
2022/10/18 08:30:28;;;;;;;4.10;2.10;;;19.30;99.90;;;;;;5121419;28;20490;-71
2022/10/18 08:32:55;;;;;;;2.73;2.00;;;19.40;99.90;;;;;;5120000;28;20527;-71
2022/10/18 08:35:22;;;;;;;2.93;2.27;;;19.50;99.90;;;;;;5119621;28;20477;-71
2022/10/18 08:37:49;;;;;;;3.27;2.00;;;19.60;99.90;;;;;;5120854;28;20465;-71
2022/10/18 08:40:16;;;;;;;2.23;1.67;;;19.60;1.00;;;;;;5120710;28;20634;-71
2022/10/18 08:42:58;;;;;;;2.10;1.90;;;19.50;99.90;;;;;;5120875;28;20463;-71
2022/10/18 08:45:26;;;;;;;2.37;1.97;;;19.70;99.90;;;;;;5121847;28;20442;-70
2022/10/18 08:47:57;;;;;;;2.27;2.00;;;19.70;1.00;;;;;;5121902;28;21001;-70
2022/10/18 08:50:27;;;;;;;2.30;2.10;;;19.70;1.00;;;;;;5121031;28;20436;-71
2022/10/18 08:53:01;;;;;;;2.73;1.90;;;19.70;99.90;;;;;;5121130;28;20455;-71
2022/10/18 08:55:35;;;;;;;2.63;1.90;;;19.60;13.40;;;;;;5122207;28;20450;-71
2022/10/18 08:58:04;;;;;;;2.93;1.80;;;19.60;99.90;;;;;;5121841;28;20444;-71
2022/10/18 09:00:34;;;;;;;2.10;1.77;;;19.80;98.20;;;;;;5121258;28;20448;-71
2022/10/18 09:03:21;;;;;;;3.17;2.03;;;19.80;1.00;;;;;;5121237;28;20489;-70
2022/10/18 09:05:51;;;;;;;2.23;1.90;;;19.80;99.90;;;;;;5123745;28;20523;-71
2022/10/18 09:08:43;;;;;;;3.23;2.13;;;19.80;27.00;;;;;;5121918;28;20471;-72
2022/10/18 09:11:26;;;;;;;3.23;1.57;;;19.90;1.00;;;;;;5123277;28;20493;-70
2022/10/18 09:14:17;;;;;;;3.17;2.33;;;19.90;24.40;;;;;;5121353;28;20437;-71
2022/10/18 09:16:49;;;;;;;2.30;1.83;;;20.00;26.90;;;;;;5123418;28;20460;-71
2022/10/18 09:19:30;;;;;;;1.93;1.43;;;20.00;23.30;;;;;;5119920;28;20448;-70
2022/10/18 09:22:07;;;;;;;1.87;1.67;;;20.30;99.90;;;;;;5118326;28;20450;-71
2022/10/18 09:24:40;;;;;;;2.43;2.10;;;20.50;1.00;;;;;;5119492;28;20443;-71
2022/10/18 09:27:15;;;;;;;3.50;1.63;;;20.50;1.00;;;;;;5117469;28;20472;-72
2022/10/18 09:29:55;;;;;;;2.10;1.63;;;20.60;1.00;;;;;;5118387;28;20440;-71
2022/10/18 09:32:31;;;;;;;2.77;1.60;;;20.80;99.90;;;;;;5119389;28;20937;-71
2022/10/18 09:35:04;;;;;;;2.23;2.00;;;21.20;99.90;;;;;;5119553;28;20442;-71
2022/10/18 09:37:34;;;;;;;2.53;1.70;;;21.30;1.00;;;;;;5119743;28;20443;-71
2022/10/18 09:40:06;;;;;;;2.03;1.70;;;21.50;1.00;;;;;;5117268;28;20440;-71
2022/10/18 09:42:39;;;;;;;1.87;1.47;;;21.40;1.00;;;;;;5118680;28;20802;-71
2022/10/18 09:45:17;;;;;;;2.33;1.30;;;21.20;1.00;;;;;;5118415;28;20455;-71
2022/10/18 09:47:48;;;;;;;4.80;1.70;;;21.20;1.00;;;;;;5118561;28;20484;-71
2022/10/18 09:50:23;;;;;;;2.63;1.90;;;20.90;1.00;;;;;;5117665;28;20444;-71
2022/10/18 09:52:56;;;;;;;2.57;1.67;;;20.50;99.80;;;;;;5118238;28;20439;-71
2022/10/18 09:55:28;;;;;;;3.33;2.37;;;20.40;99.90;;;;;;5120772;28;20459;-71
2022/10/18 09:57:58;;;;;;;3.50;2.40;;;20.50;99.90;;;;;;5118737;28;20874;-70
2022/10/18 10:00:31;;;;;;;2.60;1.73;;;20.60;99.90;;;;;;5119087;28;20470;-71
2022/10/18 10:02:58;;;;;;;3.80;2.37;;;20.40;99.90;;;;;;5118014;28;20436;-70
2022/10/18 10:05:26;;;;;;;1.77;1.63;;;20.20;1.00;;;;;;5118250;28;20448;-71
2022/10/18 10:07:58;;;;;;;2.47;2.00;;;20.50;99.90;;;;;;5118741;28;20501;-71
2022/10/18 10:10:28;;;;;;;6.93;2.07;;;20.60;99.90;;;;;;5118474;28;20470;-71
2022/10/18 10:13:05;;;;;;;2.53;1.90;;;20.50;99.90;;;;;;5119288;28;20760;-71
2022/10/18 10:15:34;;;;;;;2.80;1.97;;;20.40;99.90;;;;;;5116927;28;20446;-71
2022/10/18 10:18:04;;;;;;;2.50;2.07;;;20.50;99.90;;;;;;5112786;28;20463;-71
2022/10/18 10:20:36;;;;;;;5.10;1.93;;;20.40;99.90;;;;;;5112474;28;20514;-71
2022/10/18 10:23:08;;;;;;;2.60;1.80;;;20.20;1.00;;;;;;5098941;28;20452;-71
2022/10/18 10:25:37;;;;;;;3.43;2.60;;;20.00;1.00;;;;;;5112118;28;20451;-71
2022/10/18 10:28:11;;;;;;;4.43;2.30;;;20.10;1.00;;;;;;5111419;28;21047;-71
2022/10/18 10:30:38;;;;;;;2.77;2.17;;;20.20;1.00;;;;;;5112113;28;20451;-71
2022/10/18 10:33:06;;;;;;;2.93;2.67;;;20.20;1.00;;;;;;5111824;28;20823;-71
2022/10/18 10:35:37;;;;;;;2.37;2.10;;;20.30;99.90;;;;;;5112247;28;20447;-71
2022/10/18 10:38:05;;;;;;;2.57;2.27;;;20.30;99.90;;;;;;5111568;28;20440;-71
2022/10/18 10:40:34;;;;;;;2.20;2.00;;;20.50;99.90;;;;;;5111833;28;20811;-72
2022/10/18 10:43:05;;;;;;;2.03;1.70;;;20.60;99.90;;;;;;5111742;28;20482;-71
2022/10/18 10:45:36;;;;;;;3.13;2.40;;;20.70;99.90;;;;;;5111634;28;20451;-71
2022/10/18 10:48:06;;;;;;;3.23;1.93;;;20.90;37.80;;;;;;5111031;28;20839;-71
2022/10/18 10:50:52;;;;;;;3.00;2.40;;;21.00;1.00;;;;;;5111367;28;20447;-71
2022/10/18 10:53:31;;;;;;;3.90;2.00;;;21.00;1.00;;;;;;5110888;28;20800;-70
2022/10/18 10:55:59;;;;;;;2.90;2.30;;;21.10;1.00;;;;;;5115113;28;20431;-71
2022/10/18 10:58:28;;;;;;;4.57;2.27;;;21.10;1.00;;;;;;5116137;28;20507;-71
2022/10/18 11:00:57;;;;;;;2.60;2.00;;;21.00;1.00;;;;;;5115430;28;20451;-71
2022/10/18 11:03:24;;;;;;;3.67;2.07;;;21.00;1.00;;;;;;5116263;28;20448;-71
2022/10/18 11:05:54;;;;;;;3.43;1.80;;;21.10;1.00;;;;;;5115973;28;20440;-71
2022/10/18 11:08:24;;;;;;;2.90;2.33;;;21.20;1.00;;;;;;5115606;28;20514;-71
2022/10/18 11:11:02;;;;;;;3.67;2.33;;;21.10;1.00;;;;;;5116964;28;20466;-72
2022/10/18 11:13:41;;;;;;;4.60;1.87;;;21.10;1.00;;;;;;5109964;28;20439;-71
2022/10/18 11:16:14;;;;;;;2.30;2.10;;;21.00;1.00;;;;;;5121729;28;20451;-71
2022/10/18 11:18:46;;;;;;;5.63;1.87;;;21.10;1.00;;;;;;5122935;28;20511;-72
2022/10/18 11:21:18;;;;;;;3.70;2.93;;;21.30;1.00;;;;;;5116500;28;20439;-71
2022/10/18 11:23:45;;;;;;;3.00;2.47;;;21.30;1.00;;;;;;5115331;28;20440;-71
2022/10/18 11:26:25;;;;;;;3.47;2.87;;;21.50;1.00;;;;;;5114866;28;20813;-71
2022/10/18 11:29:05;;;;;;;3.00;1.90;;;21.60;1.00;;;;;;5115394;28;20517;-71
2022/10/18 11:31:41;;;;;;;2.10;1.90;;;21.60;1.00;;;;;;5115066;28;20946;-71
2022/10/18 11:34:22;;;;;;;3.20;2.33;;;21.70;1.00;;;;;;5114393;28;20440;-71
2022/10/18 11:36:58;;;;;;;7.13;3.03;;;21.80;1.00;;;;;;5115128;28;20454;-73
2022/10/18 11:39:29;;;;;;;3.23;2.70;;;21.40;1.00;;;;;;5114835;28;20435;-71
2022/10/18 11:42:09;;;;;;;2.77;2.30;;;21.20;1.00;;;;;;5114651;28;20440;-68
2022/10/18 11:44:42;;;;;;;2.90;2.00;;;21.00;1.00;;;;;;5115301;28;20514;-71
2022/10/18 11:47:16;;;;;;;2.70;2.17;;;21.00;1.00;;;;;;5114422;28;20487;-71
2022/10/18 11:49:56;;;;;;;3.97;2.30;;;21.10;98.00;;;;;;5113544;28;20467;-71
2022/10/18 11:52:33;;;;;;;4.13;3.73;;;21.30;1.00;;;;;;5113161;28;20948;-71
2022/10/18 11:55:24;;;;;;;3.90;3.57;;;21.30;1.00;;;;;;5112839;28;20439;-71
2022/10/18 11:57:59;;;;;;;2.30;2.07;;;21.50;1.00;;;;;;5113707;28;20454;-71
2022/10/18 12:00:54;;;;;;;2.83;2.37;;;21.50;1.00;;;;;;5112851;28;20439;-70
2022/10/18 12:03:38;;;;;;;1.97;1.80;;;21.80;1.00;;;;;;5092826;28;20500;-71
2022/10/18 12:06:11;;;;;;;2.67;2.47;;;22.10;1.00;;;;;;5112436;28;20439;-71
2022/10/18 12:08:44;;;;;;;2.53;1.93;;;22.20;1.00;;;;;;5113143;28;20483;-71
2022/10/18 12:11:15;;;;;;;2.47;2.07;;;22.10;1.00;;;;;;5112310;28;20452;-71
2022/10/18 12:13:47;;;;;;;2.43;2.10;;;22.10;1.00;;;;;;5113302;28;20447;-72
2022/10/18 12:16:15;;;;;;;2.17;1.97;;;22.00;1.00;;;;;;5112301;28;20787;-71
2022/10/18 12:18:49;;;;;;;3.23;2.00;;;22.10;1.00;;;;;;5113080;28;20455;-71
2022/10/18 12:21:20;;;;;;;4.83;1.50;;;22.00;1.00;;;;;;5111928;28;20854;-71
2022/10/18 12:23:53;;;;;;;3.90;2.67;;;21.90;1.00;;;;;;5112629;28;20459;-72
2022/10/18 12:26:21;;;;;;;2.73;2.00;;;21.90;1.00;;;;;;5098976;28;20436;-71
2022/10/18 12:28:56;;;;;;;3.73;1.97;;;21.80;1.00;;;;;;5112676;28;20480;-71
2022/10/18 12:31:32;;;;;;;2.80;2.00;;;21.60;1.00;;;;;;5112774;28;20452;-72
2022/10/18 12:34:04;;;;;;;1.97;1.70;;;21.60;1.00;;;;;;5111935;28;20925;-71
2022/10/18 12:36:53;;;;;;;2.10;1.60;;;21.70;1.00;;;;;;5112864;28;20439;-73
2022/10/18 12:39:26;;;;;;;2.10;1.70;;;21.70;1.00;;;;;;5111732;28;20456;-72
2022/10/18 12:41:55;;;;;;;4.07;1.67;;;22.00;1.00;;;;;;5112847;28;20440;-71
2022/10/18 12:44:32;;;;;;;1.87;1.10;;;22.30;1.00;;;;;;5112839;28;20456;-71
2022/10/18 12:47:00;;;;;;;1.67;1.50;;;22.50;1.00;;;;;;5112438;28;20459;-71
2022/10/18 12:49:30;;;;;;;2.67;1.30;;;22.70;1.00;;;;;;5106834;28;136529;-71
2022/10/18 12:52:00;;;;;;;1.50;1.40;;;23.00;99.90;;;;;;5113508;28;20440;-71
2022/10/18 12:54:31;;;;;;;1.57;1.20;;;22.90;99.90;;;;;;5113793;28;20444;-70
2022/10/18 12:56:59;;;;;;;1.37;1.00;;;22.80;99.90;;;;;;5112666;28;20428;-71
2022/10/18 12:59:50;;;;;;;2.10;1.33;;;22.90;99.90;;;;;;5112976;28;20460;-71
2022/10/18 13:02:23;;;;;;;2.07;1.40;;;22.70;99.90;;;;;;5109802;28;20915;-72
2022/10/18 13:04:50;;;;;;;1.80;1.10;;;22.60;99.90;;;;;;5113215;28;20943;-71